createdAt,value
2023-05-19T00:00:28.624Z,6.35
2023-05-19T00:03:00.604Z,6.10
2023-05-19T00:05:30.642Z,5.85
2023-05-19T00:08:00.995Z,6.40
2023-05-19T00:10:32.109Z,7.45
2023-05-19T00:13:01.854Z,6.25
2023-05-19T00:15:30.989Z,5.88
2023-05-19T00:18:01.548Z,6.75
2023-05-19T00:20:33.115Z,6.35
2023-05-19T00:23:01.414Z,6.07
2023-05-19T00:25:29.613Z,6.18
2023-05-19T00:27:59.224Z,5.63
2023-05-19T00:30:29.183Z,6.40
2023-05-19T00:32:58.359Z,6.05
2023-05-19T00:35:29.855Z,6.07
2023-05-19T00:37:59.522Z,6.43
2023-05-19T00:40:31.165Z,5.72
2023-05-19T00:42:59.445Z,6.70
2023-05-19T00:45:27.848Z,6.03
2023-05-19T00:47:57.604Z,6.55
2023-05-19T00:50:28.926Z,6.55
2023-05-19T00:52:58.947Z,6.03
2023-05-19T00:55:29.116Z,6.72
2023-05-19T00:57:59.345Z,6.88
2023-05-19T01:00:30.021Z,5.95
2023-05-19T01:02:58.714Z,6.53
2023-05-19T01:05:28.530Z,6.80
2023-05-19T01:07:56.904Z,6.70
2023-05-19T01:10:25.569Z,6.97
2023-05-19T01:12:54.130Z,6.80
2023-05-19T01:15:22.445Z,6.05
2023-05-19T01:17:58.679Z,6.50
2023-05-19T01:20:36.170Z,5.97
2023-05-19T01:23:19.084Z,6.30
2023-05-19T01:28:57.775Z,5.72
2023-05-19T01:31:28.390Z,6.10
2023-05-19T01:33:57.138Z,5.63
2023-05-19T01:36:28.644Z,6.10
2023-05-19T01:38:59.853Z,6.88
2023-05-19T01:41:30.160Z,6.60
2023-05-19T01:43:59.901Z,7.20
2023-05-19T01:46:30.405Z,6.40
2023-05-19T01:48:59.174Z,6.45
2023-05-19T01:51:27.758Z,6.88
2023-05-19T01:53:56.888Z,6.60
2023-05-19T01:56:35.994Z,6.30
2023-05-19T01:59:15.423Z,5.97
2023-05-19T02:01:53.211Z,7.10
2023-05-19T02:04:26.755Z,7.25
2023-05-19T02:07:02.676Z,7.53
2023-05-19T02:09:46.820Z,6.68
2023-05-19T02:12:23.384Z,6.68
2023-05-19T02:14:56.270Z,6.03
2023-05-19T02:17:29.080Z,6.90
2023-05-19T02:19:57.908Z,7.18
2023-05-19T02:22:26.128Z,6.65
2023-05-19T02:24:56.491Z,6.47
2023-05-19T02:27:26.376Z,6.43
2023-05-19T02:29:54.715Z,6.25
2023-05-19T02:32:22.802Z,6.20
2023-05-19T02:34:54.288Z,7.28
2023-05-19T02:37:23.823Z,6.70
2023-05-19T02:39:52.271Z,6.80
2023-05-19T02:42:20.712Z,6.53
2023-05-19T02:44:50.020Z,6.78
2023-05-19T02:47:19.147Z,6.60
2023-05-19T02:49:47.629Z,7.05
2023-05-19T02:52:18.255Z,5.97
2023-05-19T02:54:46.761Z,7.80
2023-05-19T02:57:15.282Z,7.22
2023-05-19T02:59:44.204Z,6.63
2023-05-19T03:02:12.760Z,6.65
2023-05-19T03:04:42.996Z,6.90
2023-05-19T03:07:13.429Z,7.43
2023-05-19T03:09:45.558Z,6.35
2023-05-19T03:12:13.983Z,7.25
2023-05-19T03:14:42.297Z,7.63
2023-05-19T03:17:10.658Z,6.90
2023-05-19T03:19:38.819Z,7.35
2023-05-19T03:22:12.079Z,7.30
2023-05-19T03:24:40.634Z,6.97
2023-05-19T03:27:11.030Z,6.80
2023-05-19T03:29:40.644Z,7.32
2023-05-19T03:32:09.891Z,7.18
2023-05-19T03:34:38.840Z,7.00
2023-05-19T03:37:08.147Z,6.95
2023-05-19T03:39:39.095Z,7.43
2023-05-19T03:42:08.037Z,7.72
2023-05-19T03:44:38.416Z,6.60
2023-05-19T03:47:07.818Z,7.05
2023-05-19T03:49:59.827Z,7.82
2023-05-19T03:53:03.757Z,7.93
2023-05-19T03:55:39.528Z,8.45
2023-05-19T03:58:07.748Z,8.02
2023-05-19T04:00:42.620Z,8.40
2023-05-19T04:03:10.857Z,8.13
2023-05-19T04:05:39.402Z,8.32
2023-05-19T04:08:08.098Z,8.55
2023-05-19T04:10:36.218Z,9.00
2023-05-19T04:13:04.405Z,8.20
2023-05-19T04:15:32.537Z,7.93
2023-05-19T04:18:02.294Z,8.43
2023-05-19T04:20:31.058Z,8.95
2023-05-19T04:22:59.298Z,9.25
2023-05-19T04:25:28.301Z,8.90
2023-05-19T04:27:57.677Z,8.43
2023-05-19T04:30:26.541Z,8.73
2023-05-19T04:32:54.990Z,8.50
2023-05-19T04:35:24.816Z,8.30
2023-05-19T04:37:54.260Z,7.97
2023-05-19T04:40:26.946Z,8.85
2023-05-19T04:42:55.300Z,9.15
2023-05-19T04:45:27.082Z,8.30
2023-05-19T04:47:59.672Z,8.02
2023-05-19T04:50:31.512Z,8.55
2023-05-19T04:52:59.769Z,8.98
2023-05-19T04:55:29.067Z,8.32
2023-05-19T04:57:57.587Z,7.82
2023-05-19T05:00:26.460Z,7.70
2023-05-19T05:03:00.974Z,8.15
2023-05-19T05:05:33.070Z,8.05
2023-05-19T05:08:03.205Z,8.02
2023-05-19T05:10:36.012Z,8.75
2023-05-19T05:13:04.988Z,8.40
2023-05-19T05:15:33.725Z,8.05
2023-05-19T05:18:04.899Z,7.82
2023-05-19T05:20:35.852Z,7.75
2023-05-19T05:23:04.836Z,8.25
2023-05-19T05:25:35.216Z,8.15
2023-05-19T05:28:06.673Z,7.50
2023-05-19T05:30:37.913Z,7.35
2023-05-19T05:33:08.205Z,6.97
2023-05-19T05:35:40.794Z,7.20
2023-05-19T05:38:12.497Z,6.95
2023-05-19T05:40:42.074Z,7.50
2023-05-19T05:43:10.824Z,6.90
2023-05-19T05:45:46.306Z,7.50
2023-05-19T05:48:15.663Z,6.22
2023-05-19T05:50:47.102Z,6.40
2023-05-19T05:53:20.636Z,6.07
2023-05-19T05:55:53.470Z,6.13
2023-05-19T05:58:24.494Z,8.57
2023-05-19T06:00:55.420Z,5.07
2023-05-19T06:03:24.447Z,5.53
2023-05-19T06:05:54.985Z,5.47
2023-05-19T06:08:23.234Z,5.53
2023-05-19T06:10:51.864Z,5.07
2023-05-19T06:13:23.961Z,6.72
2023-05-19T06:15:53.111Z,5.50
2023-05-19T06:18:28.721Z,6.35
2023-05-19T06:20:58.556Z,8.40
2023-05-19T06:23:29.014Z,9.35
2023-05-19T06:25:57.740Z,10.32
2023-05-19T06:28:25.947Z,11.88
2023-05-19T06:31:12.080Z,11.48
2023-05-19T06:34:00.966Z,9.25
2023-05-19T06:36:31.308Z,6.82
2023-05-19T06:39:01.316Z,6.60
2023-05-19T06:41:32.316Z,6.22
2023-05-19T06:44:00.886Z,5.35
2023-05-19T06:46:34.176Z,5.35
2023-05-19T06:49:02.315Z,5.38
2023-05-19T06:51:38.133Z,5.07
2023-05-19T06:54:06.345Z,4.87
2023-05-19T06:56:34.433Z,4.70
2023-05-19T06:59:02.762Z,4.78
2023-05-19T07:01:35.578Z,4.70
2023-05-19T07:04:05.587Z,5.07
2023-05-19T07:06:35.218Z,4.82
2023-05-19T07:09:05.432Z,4.65
2023-05-19T07:11:40.565Z,5.45
2023-05-19T07:14:10.149Z,4.85
2023-05-19T07:16:38.689Z,5.13
2023-05-19T07:19:07.595Z,4.10
2023-05-19T07:21:37.065Z,4.10
2023-05-19T07:24:05.907Z,4.10
2023-05-19T07:26:34.359Z,3.67
2023-05-19T07:29:03.587Z,4.28
2023-05-19T07:31:37.365Z,4.22
2023-05-19T07:34:06.354Z,4.43
2023-05-19T07:36:36.221Z,4.50
2023-05-19T07:39:04.436Z,4.07
2023-05-19T07:41:34.241Z,5.03
2023-05-19T07:44:07.432Z,4.40
2023-05-19T07:46:35.946Z,4.82
2023-05-19T07:49:04.371Z,4.47
2023-05-19T07:51:33.068Z,4.75
2023-05-19T07:54:09.810Z,4.55
2023-05-19T07:56:38.283Z,5.10
2023-05-19T07:59:07.871Z,4.80
2023-05-19T08:01:40.042Z,6.00
2023-05-19T08:04:14.076Z,4.80
2023-05-19T08:06:44.470Z,4.40
2023-05-19T08:09:14.030Z,4.20
2023-05-19T08:11:42.140Z,4.80
2023-05-19T08:14:10.890Z,4.38
2023-05-19T08:16:39.232Z,4.95
2023-05-19T08:19:07.507Z,4.43
2023-05-19T08:21:36.983Z,4.47
2023-05-19T08:24:05.457Z,3.92
2023-05-19T08:26:37.033Z,4.40
2023-05-19T08:31:34.646Z,4.80
2023-05-19T08:34:03.450Z,3.53
2023-05-19T08:36:31.779Z,4.13
2023-05-19T08:39:00.346Z,4.15
2023-05-19T08:41:28.579Z,6.05
2023-05-19T08:43:58.423Z,4.30
2023-05-19T08:46:27.163Z,3.80
2023-05-19T08:49:04.440Z,3.72
2023-05-19T08:51:38.494Z,3.47
2023-05-19T08:54:13.796Z,3.80
2023-05-19T08:56:42.038Z,4.35
2023-05-19T08:59:12.008Z,4.30
2023-05-19T09:01:50.019Z,3.50
2023-05-19T09:04:29.970Z,3.30
2023-05-19T09:06:58.758Z,3.60
2023-05-19T09:09:27.162Z,3.75
2023-05-19T09:11:55.535Z,3.20
2023-05-19T09:14:25.429Z,3.42
2023-05-19T09:16:54.231Z,3.10
2023-05-19T09:19:23.007Z,3.25
2023-05-19T09:22:03.399Z,3.22
2023-05-19T09:24:31.722Z,3.47
2023-05-19T09:27:00.486Z,2.72
2023-05-19T09:29:30.999Z,4.05
2023-05-19T09:32:01.624Z,3.55
2023-05-19T09:34:29.903Z,3.15
2023-05-19T09:36:59.877Z,3.90
2023-05-19T09:39:33.477Z,2.95
2023-05-19T09:42:06.283Z,4.70
2023-05-19T09:44:37.308Z,3.75
2023-05-19T09:47:05.968Z,3.50
2023-05-19T09:49:51.156Z,3.63
2023-05-19T09:52:19.678Z,3.25
2023-05-19T09:54:48.447Z,2.78
2023-05-19T09:57:16.965Z,2.80
2023-05-19T09:59:47.195Z,3.10
2023-05-19T10:02:22.378Z,2.72
2023-05-19T10:04:52.869Z,4.00
2023-05-19T10:07:22.124Z,3.17
2023-05-19T10:09:50.327Z,3.25
2023-05-19T10:12:18.826Z,3.03
2023-05-19T10:14:49.251Z,3.00
2023-05-19T10:17:24.616Z,2.67
2023-05-19T10:19:55.108Z,3.17
2023-05-19T10:22:23.240Z,2.80
2023-05-19T10:24:51.626Z,2.40
2023-05-19T10:27:26.086Z,2.75
2023-05-19T10:30:01.037Z,2.88
2023-05-19T10:32:32.040Z,2.72
2023-05-19T10:35:27.621Z,2.65
2023-05-19T10:38:00.796Z,3.35
2023-05-19T10:40:30.069Z,2.72
2023-05-19T10:43:16.019Z,2.65
2023-05-19T10:45:49.883Z,2.80
2023-05-19T10:48:18.729Z,3.20
2023-05-19T10:50:47.707Z,3.08
2023-05-19T10:53:18.268Z,3.22
2023-05-19T10:55:48.614Z,4.15
2023-05-19T10:58:19.602Z,3.28
2023-05-19T11:01:01.560Z,3.30
2023-05-19T11:06:23.469Z,2.45
2023-05-19T11:08:54.932Z,2.85
2023-05-19T11:11:24.550Z,3.13
2023-05-19T11:13:53.740Z,2.80
2023-05-19T11:16:30.291Z,2.63
2023-05-19T11:19:00.906Z,2.58
2023-05-19T11:21:43.731Z,3.00
2023-05-19T11:26:44.233Z,2.72
2023-05-19T11:29:12.833Z,3.30
2023-05-19T11:31:44.794Z,2.88
2023-05-19T11:34:13.892Z,2.92
2023-05-19T11:36:44.452Z,2.78
2023-05-19T11:39:13.530Z,2.70
2023-05-19T11:41:42.150Z,2.47
2023-05-19T11:44:12.988Z,2.53
2023-05-19T11:46:44.420Z,2.13
2023-05-19T11:49:14.254Z,2.50
2023-05-19T11:51:47.502Z,3.45
2023-05-19T11:54:19.241Z,3.25
2023-05-19T11:56:54.490Z,3.50
2023-05-19T11:59:31.761Z,2.67
2023-05-19T12:02:18.645Z,2.58
2023-05-19T12:04:47.284Z,2.78
2023-05-19T12:07:18.403Z,3.42
2023-05-19T12:09:48.683Z,3.00
2023-05-19T12:12:18.917Z,3.03
2023-05-19T12:17:20.751Z,2.50
2023-05-19T12:19:51.254Z,2.97
2023-05-19T12:22:19.407Z,2.28
2023-05-19T12:24:48.496Z,2.53
2023-05-19T12:27:22.832Z,2.83
2023-05-19T12:29:52.255Z,2.35
2023-05-19T12:32:28.356Z,3.05
2023-05-19T12:34:59.286Z,2.40
2023-05-19T12:37:29.918Z,2.55
2023-05-19T12:39:58.350Z,2.78
2023-05-19T12:42:31.920Z,2.63
2023-05-19T12:45:01.545Z,2.83
2023-05-19T12:47:34.677Z,3.55
2023-05-19T12:50:06.769Z,2.60
2023-05-19T12:52:44.126Z,2.50
2023-05-19T12:55:14.730Z,3.00
2023-05-19T12:57:47.979Z,2.75
2023-05-19T13:00:20.802Z,2.67
2023-05-19T13:02:58.837Z,2.40
2023-05-19T13:05:31.487Z,2.88
2023-05-19T13:08:06.989Z,2.50
2023-05-19T13:10:38.192Z,2.65
2023-05-19T13:13:08.300Z,2.88
2023-05-19T13:15:39.803Z,2.88
2023-05-19T13:18:11.313Z,3.13
2023-05-19T13:20:45.526Z,2.90
2023-05-19T13:23:15.340Z,2.72
2023-05-19T13:25:43.751Z,2.72
2023-05-19T13:28:13.590Z,2.95
2023-05-19T13:30:42.327Z,2.30
2023-05-19T13:33:14.953Z,2.60
2023-05-19T13:35:45.705Z,2.58
2023-05-19T13:38:14.557Z,2.72
2023-05-19T13:40:42.694Z,3.00
2023-05-19T13:43:10.817Z,3.10
2023-05-19T13:45:39.127Z,2.67
2023-05-19T13:48:11.024Z,2.65
2023-05-19T13:50:41.425Z,2.83
2023-05-19T13:53:12.035Z,2.53
2023-05-19T13:55:40.094Z,3.08
2023-05-19T13:58:10.934Z,3.10
2023-05-19T14:00:39.764Z,2.60
2023-05-19T14:03:09.594Z,2.92
2023-05-19T14:05:37.937Z,2.83
2023-05-19T14:08:11.191Z,2.67
2023-05-19T14:10:39.438Z,2.35
2023-05-19T14:13:28.963Z,2.60
2023-05-19T14:15:56.548Z,2.45
2023-05-19T14:18:25.421Z,2.92
2023-05-19T14:20:53.479Z,3.03
2023-05-19T14:23:23.113Z,2.97
2023-05-19T14:25:51.572Z,3.60
2023-05-19T14:28:19.856Z,3.40
2023-05-19T14:30:49.808Z,3.00
2023-05-19T14:33:19.351Z,3.08
2023-05-19T14:35:48.877Z,2.85
2023-05-19T14:38:18.226Z,3.00
2023-05-19T14:40:50.771Z,3.78
2023-05-19T14:43:19.249Z,2.67
2023-05-19T14:45:47.554Z,2.33
2023-05-19T14:48:16.427Z,2.92
2023-05-19T14:50:44.914Z,2.60
2023-05-19T14:53:16.733Z,2.70
2023-05-19T14:55:45.043Z,2.88
2023-05-19T14:58:27.826Z,3.05
2023-05-19T15:00:59.432Z,2.72
2023-05-19T15:03:27.982Z,2.53
2023-05-19T15:05:56.171Z,2.45
2023-05-19T15:08:24.769Z,2.10
2023-05-19T15:10:54.600Z,2.55
2023-05-19T15:13:24.095Z,2.38
2023-05-19T15:16:08.418Z,2.50
2023-05-19T15:18:46.250Z,2.50
2023-05-19T15:21:15.609Z,2.95
2023-05-19T15:23:44.674Z,2.72
2023-05-19T15:26:18.670Z,3.13
2023-05-19T15:28:49.906Z,2.95
2023-05-19T15:31:18.511Z,3.00
2023-05-19T15:33:46.963Z,2.80
2023-05-19T15:36:16.497Z,2.55
2023-05-19T15:38:44.806Z,2.60
2023-05-19T15:41:13.070Z,2.50
2023-05-19T15:43:41.536Z,2.35
2023-05-19T15:46:13.148Z,3.00
2023-05-19T15:48:41.361Z,2.97
2023-05-19T15:51:09.494Z,2.75
2023-05-19T15:53:38.933Z,2.42
2023-05-19T15:56:07.486Z,2.00
2023-05-19T15:58:36.054Z,2.33
2023-05-19T16:01:04.352Z,2.40
2023-05-19T16:03:34.104Z,2.83
2023-05-19T16:06:02.273Z,2.20
2023-05-19T16:08:30.367Z,2.50
2023-05-19T16:10:58.706Z,2.58
2023-05-19T16:13:27.296Z,2.30
2023-05-19T16:15:56.115Z,2.50
2023-05-19T16:18:24.214Z,2.50
2023-05-19T16:21:01.529Z,2.80
2023-05-19T16:23:30.383Z,2.00
2023-05-19T16:25:58.726Z,1.90
2023-05-19T16:28:28.156Z,2.40
2023-05-19T16:30:59.229Z,2.22
2023-05-19T16:33:27.409Z,2.25
2023-05-19T16:35:57.355Z,2.45
2023-05-19T16:38:28.059Z,1.75
2023-05-19T16:40:56.157Z,2.53
2023-05-19T16:43:24.373Z,2.25
2023-05-19T16:45:52.719Z,2.63
2023-05-19T16:48:21.093Z,2.70
2023-05-19T16:50:50.085Z,2.38
2023-05-19T16:53:20.364Z,2.30
2023-05-19T16:55:50.532Z,2.28
2023-05-19T16:58:19.112Z,2.08
2023-05-19T17:00:47.931Z,2.25
2023-05-19T17:03:16.595Z,2.40
2023-05-19T17:05:45.049Z,1.90
2023-05-19T17:08:13.889Z,1.92
2023-05-19T17:10:44.802Z,2.42
2023-05-19T17:13:13.508Z,1.92
2023-05-19T17:15:43.402Z,2.08
2023-05-19T17:18:13.163Z,2.13
2023-05-19T17:20:41.631Z,2.03
2023-05-19T17:23:10.409Z,1.90
2023-05-19T17:25:38.424Z,2.17
2023-05-19T17:28:08.164Z,1.95
2023-05-19T17:30:36.269Z,2.05
2023-05-19T17:33:04.575Z,2.00
2023-05-19T17:35:36.003Z,1.85
2023-05-19T17:38:04.374Z,1.70
2023-05-19T17:40:37.046Z,1.85
2023-05-19T17:43:05.950Z,1.70
2023-05-19T17:45:35.911Z,2.05
2023-05-19T17:48:05.071Z,1.70
2023-05-19T17:50:33.971Z,1.85
2023-05-19T17:53:03.482Z,1.90
2023-05-19T17:55:32.314Z,2.10
2023-05-19T17:58:01.125Z,1.70
2023-05-19T18:00:30.911Z,1.90
2023-05-19T18:03:02.172Z,1.70
2023-05-19T18:05:32.987Z,1.70
2023-05-19T18:08:05.035Z,2.00
2023-05-19T18:10:37.691Z,1.80
2023-05-19T18:13:06.318Z,1.90
2023-05-19T18:15:34.546Z,1.75
2023-05-19T18:18:07.793Z,1.85
2023-05-19T18:20:37.813Z,2.08
2023-05-19T18:23:06.319Z,1.95
2023-05-19T18:25:34.432Z,1.63
2023-05-19T18:28:03.038Z,2.00
2023-05-19T18:30:31.327Z,2.13
2023-05-19T18:33:02.076Z,1.92
2023-05-19T18:35:31.735Z,1.90
2023-05-19T18:38:00.217Z,2.17
2023-05-19T18:40:29.274Z,2.28
2023-05-19T18:42:57.276Z,1.90
2023-05-19T18:45:28.246Z,2.13
2023-05-19T18:47:56.641Z,1.63
2023-05-19T18:50:25.013Z,2.22
2023-05-19T18:52:54.700Z,1.88
2023-05-19T18:55:22.943Z,2.00
2023-05-19T18:57:51.384Z,2.08
2023-05-19T19:00:20.288Z,2.33
2023-05-19T19:02:50.730Z,2.03
2023-05-19T19:05:19.008Z,1.77
2023-05-19T19:07:47.524Z,2.47
2023-05-19T19:10:17.210Z,2.00
2023-05-19T19:12:45.265Z,2.13
2023-05-19T19:15:13.502Z,2.35
2023-05-19T19:17:42.006Z,2.03
2023-05-19T19:20:11.402Z,2.10
2023-05-19T19:22:39.526Z,2.28
2023-05-19T19:25:08.274Z,1.70
2023-05-19T19:27:37.733Z,2.15
2023-05-19T19:30:09.066Z,2.05
2023-05-19T19:32:37.336Z,2.30
2023-05-19T19:35:06.039Z,2.17
2023-05-19T19:37:34.356Z,1.88
2023-05-19T19:40:03.108Z,2.20
2023-05-19T19:42:31.965Z,2.67
2023-05-19T19:45:02.118Z,2.13
2023-05-19T19:47:32.655Z,2.50
2023-05-19T19:50:05.430Z,2.28
2023-05-19T19:52:34.180Z,2.40
2023-05-19T19:55:03.803Z,2.22
2023-05-19T19:57:34.075Z,2.28
2023-05-19T20:00:08.480Z,2.05
2023-05-19T20:02:55.320Z,2.28
2023-05-19T20:05:28.392Z,1.95
2023-05-19T20:07:56.877Z,2.00
2023-05-19T20:10:25.156Z,2.33
2023-05-19T20:12:54.517Z,2.20
2023-05-19T20:15:24.398Z,1.92
2023-05-19T20:17:54.541Z,2.45
2023-05-19T20:20:30.987Z,1.83
2023-05-19T20:23:13.467Z,2.10
2023-05-19T20:25:58.460Z,2.28
2023-05-19T20:28:33.281Z,2.03
2023-05-19T20:31:05.721Z,2.05
2023-05-19T20:33:35.623Z,2.42
2023-05-19T20:36:04.918Z,2.30
2023-05-19T20:38:33.231Z,2.58
2023-05-19T20:41:01.905Z,2.95
2023-05-19T20:43:32.484Z,2.30
2023-05-19T20:46:01.627Z,2.42
2023-05-19T20:48:31.209Z,2.28
2023-05-19T20:50:59.589Z,2.75
2023-05-19T20:53:27.998Z,2.20
2023-05-19T20:55:59.097Z,2.60
2023-05-19T20:58:30.523Z,3.25
2023-05-19T21:00:58.944Z,2.40
2023-05-19T21:03:28.568Z,2.40
2023-05-19T21:05:58.592Z,2.58
2023-05-19T21:08:27.924Z,2.80
2023-05-19T21:10:56.227Z,2.90
2023-05-19T21:13:24.922Z,2.78
2023-05-19T21:15:53.513Z,2.95
2023-05-19T21:18:21.953Z,2.67
2023-05-19T21:20:51.873Z,2.15
2023-05-19T21:23:21.823Z,3.00
2023-05-19T21:25:51.511Z,2.50
2023-05-19T21:28:20.128Z,2.47
2023-05-19T21:30:49.723Z,2.97
2023-05-19T21:33:19.366Z,2.30
2023-05-19T21:35:48.358Z,2.72
2023-05-19T21:40:52.432Z,2.38
2023-05-19T21:43:21.733Z,2.45
2023-05-19T21:45:49.903Z,2.10
2023-05-19T21:48:18.509Z,2.15
2023-05-19T21:50:47.493Z,2.60
2023-05-19T21:53:17.314Z,2.58
2023-05-19T21:55:48.405Z,2.35
2023-05-19T21:58:18.278Z,2.90
2023-05-19T22:00:50.928Z,2.25
2023-05-19T22:03:19.421Z,2.47
2023-05-19T22:05:50.619Z,2.50
2023-05-19T22:08:20.905Z,2.35
2023-05-19T22:10:51.657Z,2.38
2023-05-19T22:13:22.402Z,2.40
2023-05-19T22:15:52.686Z,2.60
2023-05-19T22:19:11.125Z,2.78
2023-05-19T22:21:39.945Z,2.40
2023-05-19T22:24:09.747Z,2.13
2023-05-19T22:26:45.024Z,2.80
2023-05-19T22:29:18.547Z,2.75
2023-05-19T22:31:48.310Z,2.70
2023-05-19T22:34:16.545Z,2.83
2023-05-19T22:36:46.963Z,2.70
2023-05-19T22:39:17.709Z,2.60
2023-05-19T22:41:46.105Z,3.22
2023-05-19T22:44:16.494Z,2.78
2023-05-19T22:46:45.163Z,2.38
2023-05-19T22:49:15.398Z,3.35
2023-05-19T22:51:44.930Z,2.80
2023-05-19T22:54:15.862Z,2.90
2023-05-19T22:56:48.764Z,3.00
2023-05-19T22:59:18.509Z,2.85
2023-05-19T23:01:47.325Z,2.20
2023-05-19T23:04:16.072Z,2.55
2023-05-19T23:06:44.320Z,2.70
2023-05-19T23:09:16.396Z,2.72
2023-05-19T23:11:44.750Z,2.50
2023-05-19T23:14:13.285Z,3.00
2023-05-19T23:16:43.986Z,2.78
2023-05-19T23:19:12.286Z,4.35
2023-05-19T23:21:40.597Z,3.10
2023-05-19T23:24:08.760Z,3.20
2023-05-19T23:26:36.780Z,3.10
2023-05-19T23:29:05.031Z,3.42
2023-05-19T23:31:34.975Z,3.25
2023-05-19T23:34:04.713Z,3.40
2023-05-19T23:36:33.029Z,3.53
2023-05-19T23:39:04.189Z,3.60
2023-05-19T23:41:33.631Z,3.35
2023-05-19T23:44:01.968Z,3.22
2023-05-19T23:46:31.448Z,3.40
2023-05-19T23:48:59.624Z,3.75
2023-05-19T23:51:29.709Z,3.63
2023-05-19T23:53:57.804Z,3.60
2023-05-19T23:56:26.381Z,3.72
2023-05-19T23:58:54.804Z,3.90
